WetterOnline ( https://www.wetteronline.de )

Wetter aktuell Frauenstein

Aktuelles Wetter: Zinnwald (882m)

6-stündlich | Neueste Meldungen
Ortszeit Temperatur Wetter
Di, 23.07. 8:00 15.4° C leicht bewölkt
Di, 23.07. 2:00 13.1° C leicht bewölkt
Mo, 22.07. 20:00 19.1° C fast wolkenlos
Mo, 22.07. 14:00 19.7° C bedeckt
Mo, 22.07. 8:00 16.4° C bedeckt
Mo, 22.07. 2:00 18.8° C bewölkt
So, 21.07. 20:00 23.6° C wolkig
So, 21.07. 14:00 24.3° C leicht bewölkt
Ortszeit Temperatur Wetter
Di, 23.07. 11:00 18.1° C bewölkt
Di, 23.07. 10:50 18.1° C bewölkt
Di, 23.07. 10:40 17.7° C bewölkt
Di, 23.07. 10:30 17.0° C bewölkt
Di, 23.07. 10:20 17.0° C bewölkt
Di, 23.07. 10:10 16.8° C bedeckt
Di, 23.07. 10:00 16.4° C bedeckt
Di, 23.07. 9:30 16.0° C bedeckt
Di, 23.07. 9:00 15.8° C bedeckt
Di, 23.07. 8:30 16.1° C wolkig
Di, 23.07. 8:00 15.4° C leicht bewölkt
Ortszeit Relative Feuchte Sichtweite
Di, 23.07. 8:00 78% 65 km
Di, 23.07. 2:00 84% 65 km
Mo, 22.07. 20:00 55% >70 km
Mo, 22.07. 14:00 71% >70 km
Mo, 22.07. 8:00 97% 3.9 km
Mo, 22.07. 2:00 78% 50 km
So, 21.07. 20:00 56% 50 km
So, 21.07. 14:00 56% 40 km
Ortszeit Relative Feuchte Sichtweite
Di, 23.07. 11:00 68% 65 km
Di, 23.07. 10:50 68% -
Di, 23.07. 10:40 72% -
Di, 23.07. 10:30 72% 55 km
Di, 23.07. 10:20 72% -
Di, 23.07. 10:10 73% -
Di, 23.07. 10:00 77% 65 km
Di, 23.07. 9:30 77% 45 km
Di, 23.07. 9:00 76% 60 km
Di, 23.07. 8:30 74% >70 km
Di, 23.07. 8:00 78% 65 km
Ortszeit Niederschlagsmenge Niederschlagsart
Di, 23.07. 8:00 0.0 l/m2 in 12 Std. -
Di, 23.07. 2:00 0.0 l/m2 in 6 Std. -
Mo, 22.07. 20:00 0.0 l/m2 in 12 Std. -
Mo, 22.07. 14:00 0.0 l/m2 in 6 Std. -
Mo, 22.07. 8:00 0.5 l/m2 in 12 Std. Regen
Mo, 22.07. 2:00 0.4 l/m2 in 6 Std. Regen
So, 21.07. 20:00 0.0 l/m2 in 12 Std. -
So, 21.07. 14:00 0.0 l/m2 in 6 Std. -
Ortszeit Niederschlagsmenge Niederschlagsart
Di, 23.07. 11:00 0.0 l/m2 in 1 Std. -
Di, 23.07. 10:50 keine Meldung -
Di, 23.07. 10:40 keine Meldung -
Di, 23.07. 10:30 0.0 l/m2 in 30 Min -
Di, 23.07. 10:20 keine Meldung -
Di, 23.07. 10:10 keine Meldung -
Di, 23.07. 10:00 0.0 l/m2 in 1 Std. -
Di, 23.07. 9:30 0.0 l/m2 in 30 Min -
Di, 23.07. 9:00 0.0 l/m2 in 1 Std. -
Di, 23.07. 8:30 0.0 l/m2 in 30 Min -
Di, 23.07. 8:00 0.0 l/m2 in 1 Std. -
Ortszeit Stärke Spitze Richtung
km/h Bft. km/h Grad Sektor
Di, 23.07. 8:00 9 2 22 150° SO
Di, 23.07. 2:00 14 3 29 310° NW
Mo, 22.07. 20:00 17 3 35 290° W
Mo, 22.07. 14:00 17 3 37 280° W
Mo, 22.07. 8:00 18 3 32 260° W
Mo, 22.07. 2:00 14 3 29 260° W
So, 21.07. 20:00 9 2 33 130° SO
So, 21.07. 14:00 20 4 31 150° SO
Ortszeit Stärke Spitze Richtung
km/h Bft. km/h Grad Sektor
Di, 23.07. 11:00 13 3 19 150° SO
Di, 23.07. 10:50 13 3 - 150° SO
Di, 23.07. 10:40 13 3 - 120° SO
Di, 23.07. 10:30 11 2 18 160° S
Di, 23.07. 10:20 11 2 - 160° S
Di, 23.07. 10:10 11 2 - 160° S
Di, 23.07. 10:00 11 2 19 140° SO
Di, 23.07. 9:30 11 2 17 140° SO
Di, 23.07. 9:00 11 2 18 140° SO
Di, 23.07. 8:30 9 2 13 140° SO
Di, 23.07. 8:00 9 2 11 150° SO
Ortszeit Untergrenze Bedeckung Gattung
total tief tief mittel hoch
Di, 23.07. 8:00 1500 m 3/8 3/8 - - -
Di, 23.07. 2:00 7500 m 6/8 0/8 - - -
Mo, 22.07. 20:00 1170 m 1/8 1/8 - - -
Mo, 22.07. 14:00 660 m 8/8 8/8 - - -
Mo, 22.07. 8:00 30 m 8/8 8/8 - - -
Mo, 22.07. 2:00 2700 m 8/8 4/8 - - -
So, 21.07. 20:00 1800 m 6/8 3/8 - - -
So, 21.07. 14:00 1800 m 2/8 2/8 - - -
Ortszeit Bedeckungsgrad in Achtel und Wolkenuntergrenze
Di, 23.07. 11:00 2(1470m) 7(1800m)
Di, 23.07. 10:50 2(1470m) 7(1800m)
Di, 23.07. 10:40 7
Di, 23.07. 10:30 7(1500m)
Di, 23.07. 10:20 7(1500m)
Di, 23.07. 10:10 8
Di, 23.07. 10:00 8(1500m)
Di, 23.07. 9:30 8(1500m)
Di, 23.07. 9:00 8(1500m)
Di, 23.07. 8:30 1(1470m) 5(1500m)
Di, 23.07. 8:00 3(1500m)
Ortszeit Stationsdruck (hPa) Tendenz (hPa in 3 Std.)
Di, 23.07. 8:00 920 + 0,2
Di, 23.07. 2:00 920 + 0,4
Mo, 22.07. 20:00 918 + 0,9
Mo, 22.07. 14:00 916 + 0,8
Mo, 22.07. 8:00 915 + 1,2
Mo, 22.07. 2:00 913 + 0,2
So, 21.07. 20:00 912 - 0,1
So, 21.07. 14:00 912 0,0
Ortszeit Stationsdruck (hPa) Tendenz (hPa in 3 Std.)
Di, 23.07. 11:00 920 - 0,3
Di, 23.07. 10:50 920 keine Meldung
Di, 23.07. 10:40 920 keine Meldung
Di, 23.07. 10:30 920 0,0
Di, 23.07. 10:20 920 keine Meldung
Di, 23.07. 10:10 920 keine Meldung
Di, 23.07. 10:00 920 + 0,1
Di, 23.07. 9:30 920 + 0,2
Di, 23.07. 9:00 920 + 0,1
Di, 23.07. 8:30 920 + 0,2
Di, 23.07. 8:00 920 + 0,2
Ortszeit Schneehöhe (cm)
Di, 23.07. 8:00 0
Di, 23.07. 2:00 0
Mo, 22.07. 20:00 -
Mo, 22.07. 14:00 0
Mo, 22.07. 8:00 0
Mo, 22.07. 2:00 0
So, 21.07. 20:00 0
So, 21.07. 14:00 0
Ortszeit Schneehöhe (cm)
Di, 23.07. 11:00 0
Di, 23.07. 10:50 0
Di, 23.07. 10:40 -
Di, 23.07. 10:30 0
Di, 23.07. 10:20 0
Di, 23.07. 10:10 -
Di, 23.07. 10:00 0
Di, 23.07. 9:30 0
Di, 23.07. 9:00 0
Di, 23.07. 8:30 0
Di, 23.07. 8:00 0
Link zu dieser Seite / Seite empfehlen

Das Wetter in ...